LIEO/OLB METAR and TAF weather

Enter ICAO airport designator
Station Type Date Time Source
LIEO METAR 2022/09/28 18:20 UTC NOAA

LIEO 281820Z 25020KT 9999 FEW055 19/14 Q1005


Station Type Date Time Source
LIEO Decoded METAR 2022/09/28 18:20 UTC NOAA

Olbia / Costa Smeralda, Italy (LIEO) 40-54N 009-31E 13M
Sep 28, 2022 - 02:20 PM EDT / 2022.09.28 1820 UTC
Wind: from the WSW (250 degrees) at 23 MPH (20 KT):0
Visibility: greater than 7 mile(s):0
Sky conditions: mostly clear
Temperature: 66 F (19 C)
Dew Point: 57 F (14 C)
Relative Humidity: 72%
Pressure (altimeter): 29.68 in. Hg (1005 hPa)
ob: LIEO 281820Z 25020KT 9999 FEW055 19/14 Q1005
cycle: 18

Station Type Date Time Source
LIEO TAF 2022/09/28 18:21 UTC NOAA

TAF LIEO 281700Z 2818/2918 25018KT 9999 SCT030
TEMPO 2818/2821 25018G28KT
TEMPO 2910/2918 4000 TSRA

Example: see airport list